Bridge of Weir, United Kingdom
Current Conditions -  °F | °C
As of 7:50 AM on Wednesday 26 Nov 2014 (Local Time) from EGPF Reporting Station
Moderate Fog Moderate Fog  
Wind Chill: 36°   Ceiling: Unl
Heat Index: 36°   Visibility: 0.18mi
Dew Point: 36°   Wind: 2mph
Humidity: 100%   Direction: NA
Pressure: 30.03"   Gusts: NA
Location:  55.85°N, 4.58°W
Report Text: EGPF 260750Z AUTO VRB02KT 0300 R05/P1500 FG SCT002 02/02 Q1017
Loading
Personal Weather Stations






























Interactive Weather Map New forecast layout! Learn more

10-Day Weather Forecast

Advertisements
Track Severe Weather on mobile